sensor_id;sensor_type;location;lat;lon;timestamp;pressure;altitude;pressure_sealevel;temperature;humidity
19114;BME280;9689;51.052;13.772;2023-03-12T00:02:37;100002.91;;;-1.52;78.06
19114;BME280;9689;51.052;13.772;2023-03-12T00:07:38;100005.28;;;-1.60;78.76
19114;BME280;9689;51.052;13.772;2023-03-12T00:12:39;99998.38;;;-1.64;77.67
19114;BME280;9689;51.052;13.772;2023-03-12T00:17:41;100009.56;;;-1.59;77.23
19114;BME280;9689;51.052;13.772;2023-03-12T00:22:42;100013.97;;;-1.53;77.69
19114;BME280;9689;51.052;13.772;2023-03-12T00:27:42;100013.06;;;-1.55;77.09
19114;BME280;9689;51.052;13.772;2023-03-12T00:32:44;100014.50;;;-1.30;75.09
19114;BME280;9689;51.052;13.772;2023-03-12T00:37:45;100016.94;;;-1.35;75.11
19114;BME280;9689;51.052;13.772;2023-03-12T00:42:46;100013.03;;;-1.19;74.37
19114;BME280;9689;51.052;13.772;2023-03-12T00:47:48;100012.84;;;-1.28;73.75
19114;BME280;9689;51.052;13.772;2023-03-12T00:52:48;100023.84;;;-1.31;74.99
19114;BME280;9689;51.052;13.772;2023-03-12T00:57:49;100022.94;;;-1.33;74.19
19114;BME280;9689;51.052;13.772;2023-03-12T01:02:51;100016.03;;;-0.99;70.83
19114;BME280;9689;51.052;13.772;2023-03-12T01:07:52;100014.25;;;-1.03;71.97
19114;BME280;9689;51.052;13.772;2023-03-12T01:12:53;100007.56;;;-0.97;70.94
19114;BME280;9689;51.052;13.772;2023-03-12T01:17:55;100015.97;;;-1.02;71.86
19114;BME280;9689;51.052;13.772;2023-03-12T01:22:55;100012.41;;;-1.09;73.00
19114;BME280;9689;51.052;13.772;2023-03-12T01:27:56;100012.75;;;-1.31;73.27
19114;BME280;9689;51.052;13.772;2023-03-12T01:32:58;100016.38;;;-1.22;72.76
19114;BME280;9689;51.052;13.772;2023-03-12T01:37:59;100023.31;;;-1.18;72.12
19114;BME280;9689;51.052;13.772;2023-03-12T01:43:24;100023.28;;;-1.19;72.27
19114;BME280;9689;51.052;13.772;2023-03-12T01:48:30;100019.72;;;-1.26;72.92
19114;BME280;9689;51.052;13.772;2023-03-12T01:53:32;100024.84;;;-1.24;72.96
19114;BME280;9689;51.052;13.772;2023-03-12T01:58:35;100028.91;;;-1.32;73.42
19114;BME280;9689;51.052;13.772;2023-03-12T02:03:39;100025.31;;;-1.40;73.38
19114;BME280;9689;51.052;13.772;2023-03-12T02:08:43;100031.13;;;-1.48;73.95
19114;BME280;9689;51.052;13.772;2023-03-12T02:13:45;100013.81;;;-1.22;70.99
19114;BME280;9689;51.052;13.772;2023-03-12T02:18:49;100020.72;;;-1.19;71.12
19114;BME280;9689;51.052;13.772;2023-03-12T02:23:56;100021.41;;;-1.26;71.89
19114;BME280;9689;51.052;13.772;2023-03-12T02:29:06;100030.78;;;-1.25;72.21
19114;BME280;9689;51.052;13.772;2023-03-12T02:34:08;100026.56;;;-1.23;71.58
19114;BME280;9689;51.052;13.772;2023-03-12T02:39:10;100038.41;;;-1.28;72.30
19114;BME280;9689;51.052;13.772;2023-03-12T02:44:15;100039.06;;;-1.35;71.92
19114;BME280;9689;51.052;13.772;2023-03-12T02:49:23;100045.13;;;-1.32;71.55
19114;BME280;9689;51.052;13.772;2023-03-12T02:54:24;100047.47;;;-1.39;71.41
19114;BME280;9689;51.052;13.772;2023-03-12T02:59:27;100045.66;;;-1.45;71.35
19114;BME280;9689;51.052;13.772;2023-03-12T03:04:30;100055.03;;;-1.46;72.29
19114;BME280;9689;51.052;13.772;2023-03-12T03:09:33;100063.56;;;-1.45;72.29
19114;BME280;9689;51.052;13.772;2023-03-12T03:14:35;100058.97;;;-1.58;73.95
19114;BME280;9689;51.052;13.772;2023-03-12T03:19:36;100064.94;;;-1.58;73.03
19114;BME280;9689;51.052;13.772;2023-03-12T03:24:37;100063.84;;;-1.67;73.58
19114;BME280;9689;51.052;13.772;2023-03-12T03:29:39;100069.03;;;-1.64;74.00
19114;BME280;9689;51.052;13.772;2023-03-12T03:34:40;100084.25;;;-1.69;73.92
19114;BME280;9689;51.052;13.772;2023-03-12T03:39:41;100086.59;;;-1.77;74.48
19114;BME280;9689;51.052;13.772;2023-03-12T03:44:43;100089.09;;;-1.80;74.43
19114;BME280;9689;51.052;13.772;2023-03-12T03:49:45;100087.47;;;-1.76;73.86
19114;BME280;9689;51.052;13.772;2023-03-12T03:54:47;100087.66;;;-1.68;73.14
19114;BME280;9689;51.052;13.772;2023-03-12T03:59:49;100095.53;;;-1.61;72.28
19114;BME280;9689;51.052;13.772;2023-03-12T04:04:50;100089.06;;;-1.47;70.63
19114;BME280;9689;51.052;13.772;2023-03-12T04:09:51;100097.47;;;-1.51;71.86
19114;BME280;9689;51.052;13.772;2023-03-12T04:14:53;100100.59;;;-1.62;69.31
19114;BME280;9689;51.052;13.772;2023-03-12T04:19:54;100103.44;;;-1.50;70.65
19114;BME280;9689;51.052;13.772;2023-03-12T04:24:55;100099.19;;;-1.50;71.18
19114;BME280;9689;51.052;13.772;2023-03-12T04:29:57;100105.09;;;-1.52;71.64
19114;BME280;9689;51.052;13.772;2023-03-12T04:34:58;100107.31;;;-1.66;72.32
19114;BME280;9689;51.052;13.772;2023-03-12T04:40:00;100097.00;;;-1.69;72.55
19114;BME280;9689;51.052;13.772;2023-03-12T04:45:03;100106.22;;;-1.74;72.62
19114;BME280;9689;51.052;13.772;2023-03-12T04:50:06;100110.19;;;-1.85;72.20
19114;BME280;9689;51.052;13.772;2023-03-12T04:55:08;100118.88;;;-1.80;73.44
19114;BME280;9689;51.052;13.772;2023-03-12T05:00:11;100121.03;;;-1.94;74.70
19114;BME280;9689;51.052;13.772;2023-03-12T05:05:14;100124.72;;;-1.83;71.33
19114;BME280;9689;51.052;13.772;2023-03-12T05:10:15;100126.00;;;-1.67;71.91
19114;BME280;9689;51.052;13.772;2023-03-12T05:15:17;100128.09;;;-1.85;72.81
19114;BME280;9689;51.052;13.772;2023-03-12T05:20:18;100126.59;;;-1.77;72.21
19114;BME280;9689;51.052;13.772;2023-03-12T05:25:20;100128.34;;;-1.75;72.23
19114;BME280;9689;51.052;13.772;2023-03-12T05:30:22;100127.66;;;-1.69;73.23
19114;BME280;9689;51.052;13.772;2023-03-12T05:35:23;100125.56;;;-1.84;74.00
19114;BME280;9689;51.052;13.772;2023-03-12T05:40:24;100130.81;;;-1.79;73.75
19114;BME280;9689;51.052;13.772;2023-03-12T05:45:26;100141.19;;;-1.73;73.09
19114;BME280;9689;51.052;13.772;2023-03-12T05:50:28;100138.50;;;-1.78;73.58
19114;BME280;9689;51.052;13.772;2023-03-12T05:55:29;100132.59;;;-1.75;73.49
19114;BME280;9689;51.052;13.772;2023-03-12T06:00:35;100135.09;;;-1.78;74.05
19114;BME280;9689;51.052;13.772;2023-03-12T06:05:38;100132.25;;;-1.89;74.94
19114;BME280;9689;51.052;13.772;2023-03-12T06:10:39;100135.09;;;-1.78;74.18
19114;BME280;9689;51.052;13.772;2023-03-12T06:15:41;100134.63;;;-1.63;73.56
19114;BME280;9689;51.052;13.772;2023-03-12T06:20:42;100128.44;;;-1.73;73.51
19114;BME280;9689;51.052;13.772;2023-03-12T06:25:43;100134.84;;;-1.56;73.32
19114;BME280;9689;51.052;13.772;2023-03-12T06:30:46;100131.72;;;-1.44;72.80
19114;BME280;9689;51.052;13.772;2023-03-12T06:35:47;100134.69;;;-1.27;73.37
19114;BME280;9689;51.052;13.772;2023-03-12T06:40:55;100129.84;;;-1.17;72.70
19114;BME280;9689;51.052;13.772;2023-03-12T06:45:58;100137.91;;;-1.00;71.63
19114;BME280;9689;51.052;13.772;2023-03-12T06:51:00;100137.31;;;-0.90;72.14
19114;BME280;9689;51.052;13.772;2023-03-12T06:56:01;100135.91;;;-0.77;71.84
19114;BME280;9689;51.052;13.772;2023-03-12T07:01:04;100138.00;;;-0.59;71.64
19114;BME280;9689;51.052;13.772;2023-03-12T07:06:12;100135.66;;;-0.50;70.07
19114;BME280;9689;51.052;13.772;2023-03-12T07:11:13;100126.84;;;-0.22;67.99
19114;BME280;9689;51.052;13.772;2023-03-12T07:16:16;100123.94;;;0.02;66.41
19114;BME280;9689;51.052;13.772;2023-03-12T07:21:16;100122.56;;;0.21;65.47
19114;BME280;9689;51.052;13.772;2023-03-12T07:26:21;100125.72;;;0.53;65.56
19114;BME280;9689;51.052;13.772;2023-03-12T07:31:23;100132.09;;;0.76;64.24
19114;BME280;9689;51.052;13.772;2023-03-12T07:36:24;100123.06;;;0.98;63.65
19114;BME280;9689;51.052;13.772;2023-03-12T07:41:25;100134.47;;;1.19;63.56
19114;BME280;9689;51.052;13.772;2023-03-12T07:46:27;100128.13;;;1.54;62.29
19114;BME280;9689;51.052;13.772;2023-03-12T07:51:27;100129.50;;;1.91;62.19
19114;BME280;9689;51.052;13.772;2023-03-12T07:56:28;100129.50;;;1.93;62.46
19114;BME280;9689;51.052;13.772;2023-03-12T08:01:30;100129.84;;;2.23;61.00
19114;BME280;9689;51.052;13.772;2023-03-12T08:06:31;100129.28;;;2.52;59.81
19114;BME280;9689;51.052;13.772;2023-03-12T08:11:32;100138.06;;;2.75;58.62
19114;BME280;9689;51.052;13.772;2023-03-12T08:16:35;100137.28;;;2.81;57.57
19114;BME280;9689;51.052;13.772;2023-03-12T08:21:36;100132.22;;;2.93;56.87
19114;BME280;9689;51.052;13.772;2023-03-12T08:26:36;100135.75;;;3.04;56.68
19114;BME280;9689;51.052;13.772;2023-03-12T08:31:38;100137.66;;;3.33;56.90
19114;BME280;9689;51.052;13.772;2023-03-12T08:36:59;100124.97;;;3.66;56.01
19114;BME280;9689;51.052;13.772;2023-03-12T08:42:01;100130.19;;;3.82;55.90
19114;BME280;9689;51.052;13.772;2023-03-12T08:47:04;100125.22;;;4.28;54.51
19114;BME280;9689;51.052;13.772;2023-03-12T08:52:04;100130.44;;;4.75;52.44
19114;BME280;9689;51.052;13.772;2023-03-12T08:57:05;100128.75;;;4.80;52.09
19114;BME280;9689;51.052;13.772;2023-03-12T09:02:09;100115.81;;;5.14;51.24
19114;BME280;9689;51.052;13.772;2023-03-12T09:07:10;100110.66;;;5.06;51.83
19114;BME280;9689;51.052;13.772;2023-03-12T09:12:12;100096.81;;;5.45;51.16
19114;BME280;9689;51.052;13.772;2023-03-12T09:17:17;100103.69;;;5.57;50.68
19114;BME280;9689;51.052;13.772;2023-03-12T09:22:29;100112.38;;;5.13;50.64
19114;BME280;9689;51.052;13.772;2023-03-12T09:27:46;100096.00;;;5.02;48.24
19114;BME280;9689;51.052;13.772;2023-03-12T09:32:48;100091.72;;;5.08;47.40
19114;BME280;9689;51.052;13.772;2023-03-12T09:37:49;100090.03;;;4.88;46.58
19114;BME280;9689;51.052;13.772;2023-03-12T09:42:52;100088.28;;;4.77;46.46
19114;BME280;9689;51.052;13.772;2023-03-12T09:47:57;100082.25;;;4.94;47.12
19114;BME280;9689;51.052;13.772;2023-03-12T09:53:02;100079.69;;;4.98;45.35
19114;BME280;9689;51.052;13.772;2023-03-12T09:58:12;100083.13;;;4.80;44.72
19114;BME280;9689;51.052;13.772;2023-03-12T10:03:33;100074.50;;;4.94;42.93
19114;BME280;9689;51.052;13.772;2023-03-12T10:08:53;100064.19;;;4.88;42.96
19114;BME280;9689;51.052;13.772;2023-03-12T10:14:07;100064.19;;;4.92;41.84
19114;BME280;9689;51.052;13.772;2023-03-12T10:19:33;100063.34;;;4.81;41.67
19114;BME280;9689;51.052;13.772;2023-03-12T10:24:48;100043.53;;;5.04;42.65
19114;BME280;9689;51.052;13.772;2023-03-12T10:29:54;100037.19;;;5.82;42.78
19114;BME280;9689;51.052;13.772;2023-03-12T10:34:58;100028.50;;;6.06;40.21
19114;BME280;9689;51.052;13.772;2023-03-12T10:40:00;100027.75;;;5.84;39.93
19114;BME280;9689;51.052;13.772;2023-03-12T10:45:16;100026.84;;;5.88;37.60
19114;BME280;9689;51.052;13.772;2023-03-12T10:50:22;100021.75;;;5.74;38.43
19114;BME280;9689;51.052;13.772;2023-03-12T10:55:24;100018.97;;;6.17;37.93
19114;BME280;9689;51.052;13.772;2023-03-12T11:00:29;100005.34;;;6.93;38.33
19114;BME280;9689;51.052;13.772;2023-03-12T11:05:46;100007.84;;;7.02;38.05
19114;BME280;9689;51.052;13.772;2023-03-12T11:10:50;99991.53;;;6.96;38.18
19114;BME280;9689;51.052;13.772;2023-03-12T11:15:52;99994.69;;;7.91;36.91
19114;BME280;9689;51.052;13.772;2023-03-12T11:20:56;99991.59;;;7.62;38.04
19114;BME280;9689;51.052;13.772;2023-03-12T11:25:59;99979.28;;;7.08;39.82
19114;BME280;9689;51.052;13.772;2023-03-12T11:31:02;99978.84;;;7.45;37.17
19114;BME280;9689;51.052;13.772;2023-03-12T11:36:17;99974.06;;;7.82;38.24
19114;BME280;9689;51.052;13.772;2023-03-12T11:41:35;99961.47;;;7.53;38.07
19114;BME280;9689;51.052;13.772;2023-03-12T11:46:51;99949.72;;;7.89;37.49
19114;BME280;9689;51.052;13.772;2023-03-12T11:52:02;99932.63;;;7.76;38.36
19114;BME280;9689;51.052;13.772;2023-03-12T11:57:14;99918.25;;;8.11;38.83
19114;BME280;9689;51.052;13.772;2023-03-12T12:02:35;99910.13;;;8.31;37.17
19114;BME280;9689;51.052;13.772;2023-03-12T12:07:49;99894.69;;;7.69;36.60
19114;BME280;9689;51.052;13.772;2023-03-12T12:13:00;99882.44;;;8.31;35.79
19114;BME280;9689;51.052;13.772;2023-03-12T12:18:19;99876.84;;;8.03;36.44
19114;BME280;9689;51.052;13.772;2023-03-12T12:23:36;99858.06;;;7.89;37.19
19114;BME280;9689;51.052;13.772;2023-03-12T12:28:59;99852.22;;;7.76;36.97
19114;BME280;9689;51.052;13.772;2023-03-12T12:34:15;99851.66;;;8.59;40.44
19114;BME280;9689;51.052;13.772;2023-03-12T12:39:28;99828.56;;;8.45;36.65
19114;BME280;9689;51.052;13.772;2023-03-12T12:44:34;99826.38;;;8.21;38.30
19114;BME280;9689;51.052;13.772;2023-03-12T12:49:41;99816.06;;;8.18;38.25
19114;BME280;9689;51.052;13.772;2023-03-12T12:54:52;99828.66;;;7.34;40.60
19114;BME280;9689;51.052;13.772;2023-03-12T13:00:07;99825.50;;;7.11;41.98
19114;BME280;9689;51.052;13.772;2023-03-12T13:05:18;99814.22;;;7.74;41.48
19114;BME280;9689;51.052;13.772;2023-03-12T13:10:40;99819.00;;;7.44;43.11
19114;BME280;9689;51.052;13.772;2023-03-12T13:16:15;99816.50;;;7.38;42.86
19114;BME280;9689;51.052;13.772;2023-03-12T13:21:22;99813.28;;;7.78;42.30
19114;BME280;9689;51.052;13.772;2023-03-12T13:26:30;99806.75;;;7.54;42.28
19114;BME280;9689;51.052;13.772;2023-03-12T13:31:39;99808.03;;;7.27;43.41
19114;BME280;9689;51.052;13.772;2023-03-12T13:36:43;99809.66;;;7.34;41.16
19114;BME280;9689;51.052;13.772;2023-03-12T13:41:47;99809.19;;;7.06;42.45
19114;BME280;9689;51.052;13.772;2023-03-12T13:46:58;99808.06;;;7.24;42.18
19114;BME280;9689;51.052;13.772;2023-03-12T13:52:09;99801.88;;;7.34;45.18
19114;BME280;9689;51.052;13.772;2023-03-12T13:57:36;99804.06;;;7.01;41.20
19114;BME280;9689;51.052;13.772;2023-03-12T14:02:44;99808.88;;;7.27;41.00
19114;BME280;9689;51.052;13.772;2023-03-12T14:13:24;99809.06;;;7.15;42.20
19114;BME280;9689;51.052;13.772;2023-03-12T14:18:29;99813.13;;;6.68;43.60
19114;BME280;9689;51.052;13.772;2023-03-12T14:23:35;99794.34;;;6.53;45.34
19114;BME280;9689;51.052;13.772;2023-03-12T14:28:40;99793.72;;;6.31;47.13
19114;BME280;9689;51.052;13.772;2023-03-12T14:33:49;99798.09;;;6.26;47.73
19114;BME280;9689;51.052;13.772;2023-03-12T14:38:57;99792.03;;;6.28;49.64
19114;BME280;9689;51.052;13.772;2023-03-12T14:44:09;99793.03;;;6.13;53.06
19114;BME280;9689;51.052;13.772;2023-03-12T14:49:19;99796.63;;;5.99;55.65
19114;BME280;9689;51.052;13.772;2023-03-12T14:54:22;99797.91;;;5.49;59.53
19114;BME280;9689;51.052;13.772;2023-03-12T14:59:28;99778.09;;;5.49;61.90
19114;BME280;9689;51.052;13.772;2023-03-12T15:04:32;99790.28;;;5.29;64.20
19114;BME280;9689;51.052;13.772;2023-03-12T15:09:35;99792.22;;;4.92;67.70
19114;BME280;9689;51.052;13.772;2023-03-12T15:14:40;99789.72;;;4.79;69.46
19114;BME280;9689;51.052;13.772;2023-03-12T15:19:42;99781.16;;;4.68;69.07
19114;BME280;9689;51.052;13.772;2023-03-12T15:24:43;99768.38;;;4.41;70.54
19114;BME280;9689;51.052;13.772;2023-03-12T15:29:46;99768.41;;;4.35;72.05
19114;BME280;9689;51.052;13.772;2023-03-12T15:34:48;99758.09;;;4.35;71.86
19114;BME280;9689;51.052;13.772;2023-03-12T15:39:51;99723.22;;;5.17;76.95
19114;BME280;9689;51.052;13.772;2023-03-12T15:44:55;99724.34;;;4.73;71.95
19114;BME280;9689;51.052;13.772;2023-03-12T15:49:59;99712.31;;;4.72;70.95
19114;BME280;9689;51.052;13.772;2023-03-12T15:55:17;99709.63;;;4.86;70.37
19114;BME280;9689;51.052;13.772;2023-03-12T16:00:25;99714.81;;;4.86;70.11
19114;BME280;9689;51.052;13.772;2023-03-12T16:05:29;99698.41;;;4.97;70.16
19114;BME280;9689;51.052;13.772;2023-03-12T16:10:33;99700.16;;;4.91;69.96
19114;BME280;9689;51.052;13.772;2023-03-12T16:15:37;99693.34;;;4.79;69.99
19114;BME280;9689;51.052;13.772;2023-03-12T16:20:38;99691.56;;;4.86;69.82
19114;BME280;9689;51.052;13.772;2023-03-12T16:25:41;99688.22;;;4.74;69.63
19114;BME280;9689;51.052;13.772;2023-03-12T16:30:44;99691.56;;;4.86;70.45
19114;BME280;9689;51.052;13.772;2023-03-12T16:35:45;99678.72;;;4.79;70.22
19114;BME280;9689;51.052;13.772;2023-03-12T16:40:47;99702.78;;;4.81;69.95
19114;BME280;9689;51.052;13.772;2023-03-12T16:45:51;99700.25;;;4.78;69.68
19114;BME280;9689;51.052;13.772;2023-03-12T16:50:54;99688.16;;;4.82;69.56
19114;BME280;9689;51.052;13.772;2023-03-12T16:55:58;99694.97;;;4.95;69.72
19114;BME280;9689;51.052;13.772;2023-03-12T17:01:00;99692.41;;;4.91;69.78
19114;BME280;9689;51.052;13.772;2023-03-12T17:06:04;99685.56;;;4.88;69.72
19114;BME280;9689;51.052;13.772;2023-03-12T17:11:12;99686.44;;;4.82;70.49
19114;BME280;9689;51.052;13.772;2023-03-12T17:16:16;99685.59;;;4.82;70.51
19114;BME280;9689;51.052;13.772;2023-03-12T17:21:17;99681.31;;;4.78;69.61
19114;BME280;9689;51.052;13.772;2023-03-12T17:26:18;99704.53;;;4.81;70.43
19114;BME280;9689;51.052;13.772;2023-03-12T17:31:20;99704.50;;;4.87;70.39
19114;BME280;9689;51.052;13.772;2023-03-12T17:36:25;99720.81;;;4.91;71.28
19114;BME280;9689;51.052;13.772;2023-03-12T17:41:26;99718.63;;;5.51;72.22
19114;BME280;9689;51.052;13.772;2023-03-12T17:46:28;99708.31;;;5.49;70.68
19114;BME280;9689;51.052;13.772;2023-03-12T17:51:29;99702.34;;;5.43;71.54
19114;BME280;9689;51.052;13.772;2023-03-12T17:56:30;99704.91;;;5.43;71.56
19114;BME280;9689;51.052;13.772;2023-03-12T18:01:32;99726.41;;;5.46;72.10
19114;BME280;9689;51.052;13.772;2023-03-12T18:06:32;99721.91;;;5.68;71.72
19114;BME280;9689;51.052;13.772;2023-03-12T18:11:33;99711.59;;;5.63;72.93
19114;BME280;9689;51.052;13.772;2023-03-12T18:16:36;99702.03;;;5.72;73.05
19114;BME280;9689;51.052;13.772;2023-03-12T18:21:36;99709.81;;;5.72;73.25
19114;BME280;9689;51.052;13.772;2023-03-12T18:26:37;99708.03;;;5.77;72.78
19114;BME280;9689;51.052;13.772;2023-03-12T18:31:39;99719.16;;;5.82;73.56
19114;BME280;9689;51.052;13.772;2023-03-12T18:36:40;99720.03;;;5.85;72.83
19114;BME280;9689;51.052;13.772;2023-03-12T18:41:41;99718.25;;;5.93;72.98
19114;BME280;9689;51.052;13.772;2023-03-12T18:46:44;99706.16;;;5.89;73.29
19114;BME280;9689;51.052;13.772;2023-03-12T18:51:45;99715.63;;;5.95;74.09
19114;BME280;9689;51.052;13.772;2023-03-12T18:56:46;99715.50;;;6.06;73.76
19114;BME280;9689;51.052;13.772;2023-03-12T19:01:49;99715.50;;;6.07;73.54
19114;BME280;9689;51.052;13.772;2023-03-12T19:06:49;99734.19;;;6.32;73.86
19114;BME280;9689;51.052;13.772;2023-03-12T19:11:50;99720.19;;;6.47;73.70
19114;BME280;9689;51.052;13.772;2023-03-12T19:16:52;99730.38;;;6.59;72.97
19114;BME280;9689;51.052;13.772;2023-03-12T19:21:53;99733.81;;;6.60;72.83
19114;BME280;9689;51.052;13.772;2023-03-12T19:26:55;99716.66;;;6.54;73.99
19114;BME280;9689;51.052;13.772;2023-03-12T19:31:57;99716.72;;;6.48;74.06
19114;BME280;9689;51.052;13.772;2023-03-12T19:36:58;99716.34;;;6.75;74.38
19114;BME280;9689;51.052;13.772;2023-03-12T19:41:59;99713.63;;;6.85;74.93
19114;BME280;9689;51.052;13.772;2023-03-12T19:47:01;99714.50;;;6.85;74.45
19114;BME280;9689;51.052;13.772;2023-03-12T19:52:05;99708.97;;;7.08;74.21
19114;BME280;9689;51.052;13.772;2023-03-12T19:57:06;99727.09;;;7.09;74.00
19114;BME280;9689;51.052;13.772;2023-03-12T20:02:10;99734.56;;;7.28;73.19
19114;BME280;9689;51.052;13.772;2023-03-12T20:07:11;99730.03;;;7.42;73.41
19114;BME280;9689;51.052;13.772;2023-03-12T20:12:12;99734.38;;;7.42;73.27
19114;BME280;9689;51.052;13.772;2023-03-12T20:17:14;99741.19;;;7.47;73.14
19114;BME280;9689;51.052;13.772;2023-03-12T20:22:15;99736.03;;;7.44;73.04
19114;BME280;9689;51.052;13.772;2023-03-12T20:27:16;99742.09;;;7.45;72.93
19114;BME280;9689;51.052;13.772;2023-03-12T20:32:18;99750.53;;;7.57;72.99
19114;BME280;9689;51.052;13.772;2023-03-12T20:37:19;99739.47;;;7.46;72.92
19114;BME280;9689;51.052;13.772;2023-03-12T20:42:19;99728.19;;;7.50;72.88
19114;BME280;9689;51.052;13.772;2023-03-12T20:47:22;99729.00;;;7.52;73.74
19114;BME280;9689;51.052;13.772;2023-03-12T20:52:23;99737.66;;;7.51;73.21
19114;BME280;9689;51.052;13.772;2023-03-12T20:57:24;99736.59;;;7.64;73.32
19114;BME280;9689;51.052;13.772;2023-03-12T21:02:26;99717.34;;;7.76;72.95
19114;BME280;9689;51.052;13.772;2023-03-12T21:07:27;99725.19;;;7.72;73.00
19114;BME280;9689;51.052;13.772;2023-03-12T21:12:28;99734.38;;;7.91;72.74
19114;BME280;9689;51.052;13.772;2023-03-12T21:17:31;99732.03;;;7.77;72.75
19114;BME280;9689;51.052;13.772;2023-03-12T21:22:32;99733.81;;;7.75;73.15
19114;BME280;9689;51.052;13.772;2023-03-12T21:27:32;99732.97;;;7.72;73.33
19114;BME280;9689;51.052;13.772;2023-03-12T21:32:49;99722.09;;;8.01;72.63
19114;BME280;9689;51.052;13.772;2023-03-12T21:37:50;99717.09;;;7.91;72.97
19114;BME280;9689;51.052;13.772;2023-03-12T21:42:52;99709.91;;;8.04;72.55
19114;BME280;9689;51.052;13.772;2023-03-12T21:47:54;99704.00;;;7.96;72.82
19114;BME280;9689;51.052;13.772;2023-03-12T21:52:55;99699.34;;;8.13;72.24
19114;BME280;9689;51.052;13.772;2023-03-12T21:57:56;99700.28;;;8.11;72.38
19114;BME280;9689;51.052;13.772;2023-03-12T22:02:58;99682.22;;;8.05;72.95
19114;BME280;9689;51.052;13.772;2023-03-12T22:07:59;99688.28;;;8.04;72.75
19114;BME280;9689;51.052;13.772;2023-03-12T22:12:59;99679.25;;;8.23;72.38
19114;BME280;9689;51.052;13.772;2023-03-12T22:18:02;99680.75;;;8.33;71.65
19114;BME280;9689;51.052;13.772;2023-03-12T22:23:02;99685.06;;;8.37;71.91
19114;BME280;9689;51.052;13.772;2023-03-12T22:28:03;99676.22;;;8.46;71.55
19114;BME280;9689;51.052;13.772;2023-03-12T22:33:05;99668.78;;;8.28;72.11
19114;BME280;9689;51.052;13.772;2023-03-12T22:38:06;99662.63;;;8.32;72.10
19114;BME280;9689;51.052;13.772;2023-03-12T22:43:07;99657.22;;;8.42;71.87
19114;BME280;9689;51.052;13.772;2023-03-12T22:48:09;99660.75;;;8.40;72.01
19114;BME280;9689;51.052;13.772;2023-03-12T22:53:09;99660.78;;;8.38;72.26
19114;BME280;9689;51.052;13.772;2023-03-12T22:58:10;99645.63;;;8.59;71.21
19114;BME280;9689;51.052;13.772;2023-03-12T23:03:12;99643.88;;;8.59;71.14
19114;BME280;9689;51.052;13.772;2023-03-12T23:08:13;99650.84;;;8.57;71.38
19114;BME280;9689;51.052;13.772;2023-03-12T23:13:14;99649.91;;;8.60;71.15
19114;BME280;9689;51.052;13.772;2023-03-12T23:18:16;99647.31;;;8.60;71.37
19114;BME280;9689;51.052;13.772;2023-03-12T23:23:17;99641.34;;;8.56;71.55
19114;BME280;9689;51.052;13.772;2023-03-12T23:28:18;99644.63;;;8.64;71.32
19114;BME280;9689;51.052;13.772;2023-03-12T23:33:20;99639.63;;;8.57;71.52
19114;BME280;9689;51.052;13.772;2023-03-12T23:38:20;99635.22;;;8.59;71.94
19114;BME280;9689;51.052;13.772;2023-03-12T23:43:21;99635.88;;;8.70;71.21
19114;BME280;9689;51.052;13.772;2023-03-12T23:48:23;99627.22;;;8.68;71.39
19114;BME280;9689;51.052;13.772;2023-03-12T23:53:24;99633.22;;;8.71;71.68
19114;BME280;9689;51.052;13.772;2023-03-12T23:58:26;99632.59;;;8.62;72.05
